SAZS

San Carlos De Bariloche Airport

San Carlos de Bariloche, Argentina
TAF SAZS 210500Z 2106/2206 29025G35KT 9999 SCT015 SCT030 BKN100 TX04/2118Z TNM01/2108Z BECMG 2116/2118 32020KT BKN015
Issued Valid From Valid To
Jun-21 @ 05:00 UTC
(5 hours ago)
Jun-21 @ 06:00 UTC
(4 hours ago)
Jun-22 @ 06:00 UTC
(in 20 hours)
Jun-21 @ 06:00 to Jun-21 @ 16:00
TAF SAZS 210500Z 2106/2206 29025G35KT 9999 SCT015 SCT030 BKN100 TX04/2118Z TNM01/2108Z
Wind Visibility Clouds
290° at 25 knots
 Gusting to 35 knots
10,000+ meters
  • Scattered at 1,500' AGL
  • Scattered at 3,000' AGL
  • Broken at 10,000' AGL
Becoming Jun-21 @ 16:00 to Jun-22 @ 06:00
BECMG 2116/2118 32020KT BKN015
Wind Visibility Clouds
320° at 20 knots 10,000+ meters
  • Broken at 1,500' AGL
TAF SAZS 210500Z 2106/2206 29025G35KT 9999 SCT015 SCT030 BKN100 TX04/2118Z TNM01/2108Z BECMG 2116/2118 32020KT BKN015
Issued Jun-21 @ 05:00 UTC
(5 hours ago)
Valid From Jun-21 @ 06:00 UTC
(4 hours ago)
Valid To Jun-22 @ 06:00 UTC
(in 20 hours)
Jun-21 @ 06:00 - Jun-21 @ 16:00
Wind Visibility
290° at 25 knots
 Gusting to 35 knots
10,000+ meters
Clouds
  • Scattered at 1,500' AGL
  • Scattered at 3,000' AGL
  • Broken at 10,000' AGL
Becoming Jun-21 @ 16:00 - Jun-22 @ 06:00
Wind Visibility
320° at 20 knots 10,000+ meters
Clouds
  • Broken at 1,500' AGL